Time;durP1;ratioP1;P1;durP2;ratioP2;P2;SDS_P1;SDS_P2;PMS_P1;PMS_P2;Temp;Humidity;BMP_temperature;BMP_pressure;BME280_temperature;BME280_humidity;BME280_pressure;Samples;Min_cycle;Max_cycle;Signal;HPM_P1;HPM_P2
2022/11/21 00:01:51;;;;;;;14.90;10.97;;;4.80;99.90;;;;;;4969359;28;20203;-77
2022/11/21 00:04:19;;;;;;;13.70;10.60;;;4.70;99.90;;;;;;4975564;28;20228;-77
2022/11/21 00:06:46;;;;;;;14.47;11.40;;;4.70;99.90;;;;;;4954988;29;20203;-77
2022/11/21 00:09:13;;;;;;;15.20;10.90;;;4.50;99.90;;;;;;4965005;28;20200;-77
2022/11/21 00:11:41;;;;;;;14.30;11.37;;;4.60;99.90;;;;;;4951181;28;20219;-77
2022/11/21 00:14:08;;;;;;;13.90;11.33;;;4.60;99.90;;;;;;4966974;28;20230;-77
2022/11/21 00:16:36;;;;;;;14.17;10.53;;;4.70;99.90;;;;;;4967410;28;20704;-77
2022/11/21 00:19:05;;;;;;;15.43;10.37;;;4.80;99.90;;;;;;4953398;28;20210;-77
2022/11/21 00:21:32;;;;;;;16.17;11.90;;;4.70;99.90;;;;;;4955035;28;20202;-77
2022/11/21 00:24:00;;;;;;;18.40;12.77;;;4.80;99.90;;;;;;4966368;28;20233;-77
2022/11/21 00:26:27;;;;;;;14.57;11.03;;;4.80;99.90;;;;;;4943434;29;20185;-77
2022/11/21 00:28:54;;;;;;;14.90;11.60;;;4.90;99.90;;;;;;4953698;28;20203;-77
2022/11/21 00:31:24;;;;;;;15.30;11.83;;;4.80;99.90;;;;;;4968810;28;20207;-77
2022/11/21 00:33:56;;;;;;;13.77;10.47;;;4.70;99.90;;;;;;4957041;28;20230;-77
2022/11/21 00:36:25;;;;;;;15.07;10.97;;;4.80;99.90;;;;;;4968065;28;20219;-77
2022/11/21 00:38:55;;;;;;;16.90;12.30;;;4.70;99.90;;;;;;4955773;28;20206;-77
2022/11/21 00:41:23;;;;;;;17.83;11.97;;;4.60;99.90;;;;;;4969087;28;20206;-77
2022/11/21 00:43:50;;;;;;;15.97;12.30;;;4.60;99.90;;;;;;4968761;28;20239;-77
2022/11/21 00:46:17;;;;;;;15.93;11.93;;;4.70;99.90;;;;;;4948957;28;20205;-77
2022/11/21 00:48:45;;;;;;;17.47;12.37;;;4.80;99.90;;;;;;4964660;28;20204;-77
2022/11/21 00:51:12;;;;;;;15.30;10.60;;;4.70;99.90;;;;;;4965740;28;20211;-77
2022/11/21 00:53:41;;;;;;;15.27;11.70;;;4.80;99.90;;;;;;4956636;28;20227;-77
2022/11/21 00:56:09;;;;;;;13.67;11.23;;;4.80;99.90;;;;;;4952708;29;20222;-77
2022/11/21 00:58:36;;;;;;;13.67;10.70;;;4.60;99.90;;;;;;4952608;29;20207;-77
2022/11/21 01:01:06;;;;;;;13.00;10.63;;;4.60;99.90;;;;;;4953041;28;20673;-77
2022/11/21 01:03:34;;;;;;;12.50;10.10;;;4.60;99.90;;;;;;4950683;29;20219;-77
2022/11/21 01:06:03;;;;;;;13.73;10.40;;;4.60;99.90;;;;;;4968752;28;20222;-77
2022/11/21 01:08:31;;;;;;;13.40;10.17;;;4.60;99.90;;;;;;4968435;28;20561;-77
2022/11/21 01:11:04;;;;;;;11.80;9.70;;;4.40;99.90;;;;;;4952833;28;20211;-77
2022/11/21 01:13:32;;;;;;;12.23;9.83;;;4.50;99.90;;;;;;4961530;28;20225;-77
2022/11/21 01:16:29;;;;;;;13.47;10.30;;;4.50;99.90;;;;;;4952586;29;20237;-77
2022/11/21 01:18:57;;;;;;;14.33;10.47;;;4.40;99.90;;;;;;4954737;28;20212;-77
2022/11/21 01:21:26;;;;;;;12.97;9.67;;;4.50;99.90;;;;;;4967526;28;20225;-77
2022/11/21 01:23:53;;;;;;;11.37;9.47;;;4.40;99.90;;;;;;4984535;28;20223;-77
2022/11/21 01:26:25;;;;;;;14.73;11.43;;;4.40;99.90;;;;;;4952255;29;20208;-77
2022/11/21 01:28:52;;;;;;;12.93;10.37;;;4.30;99.90;;;;;;4955430;28;20203;-77
2022/11/21 01:31:22;;;;;;;14.50;10.50;;;4.30;99.90;;;;;;4982318;28;20207;-77
2022/11/21 01:33:50;;;;;;;13.13;10.17;;;4.20;99.90;;;;;;4969107;28;20677;-77
2022/11/21 01:36:18;;;;;;;11.97;10.23;;;4.20;99.90;;;;;;4953084;28;20227;-77
2022/11/21 01:38:48;;;;;;;12.60;10.17;;;4.10;99.90;;;;;;4945499;28;20711;-77
2022/11/21 01:41:18;;;;;;;13.27;9.87;;;4.10;99.90;;;;;;4953956;28;20205;-77
2022/11/21 01:43:47;;;;;;;12.73;10.20;;;4.20;99.90;;;;;;4960206;28;20235;-77
2022/11/21 01:46:17;;;;;;;12.50;10.30;;;4.20;99.90;;;;;;4968783;28;20205;-77
2022/11/21 01:48:50;;;;;;;12.80;10.23;;;4.20;99.90;;;;;;4951247;28;20203;-77
2022/11/21 01:51:23;;;;;;;14.03;11.07;;;4.30;99.90;;;;;;4947570;29;20192;-77
2022/11/21 01:54:02;;;;;;;14.53;11.27;;;4.40;99.90;;;;;;4950370;29;20224;-77
2022/11/21 01:56:32;;;;;;;14.37;10.87;;;4.40;99.90;;;;;;4960722;28;20217;-77
2022/11/21 01:59:03;;;;;;;15.10;10.77;;;4.40;99.90;;;;;;4966286;28;20557;-77
2022/11/21 02:01:32;;;;;;;14.60;11.13;;;4.40;99.90;;;;;;4953598;28;20207;-77
2022/11/21 02:04:02;;;;;;;16.20;11.17;;;4.30;99.90;;;;;;4972160;28;20584;-77
2022/11/21 02:06:31;;;;;;;13.23;11.63;;;4.30;99.90;;;;;;4961177;28;20196;-77
2022/11/21 02:09:00;;;;;;;12.57;10.37;;;4.30;99.90;;;;;;4961753;28;20206;-77
2022/11/21 02:11:32;;;;;;;15.87;11.20;;;4.40;99.90;;;;;;4951191;28;20218;-77
2022/11/21 02:14:04;;;;;;;13.87;11.37;;;4.40;99.90;;;;;;4954514;29;20227;-77
2022/11/21 02:16:31;;;;;;;15.00;11.03;;;4.30;99.90;;;;;;4957623;28;20225;-77
2022/11/21 02:18:59;;;;;;;14.07;11.27;;;4.20;99.90;;;;;;4957789;28;20191;-77
2022/11/21 02:21:38;;;;;;;16.17;11.10;;;4.10;99.90;;;;;;4976117;28;20199;-77
2022/11/21 02:24:14;;;;;;;15.00;11.23;;;4.20;99.90;;;;;;4969569;28;20234;-77
2022/11/21 02:26:44;;;;;;;16.00;11.50;;;4.30;99.90;;;;;;4988295;28;20703;-77
2022/11/21 02:29:12;;;;;;;15.33;10.70;;;4.40;99.90;;;;;;4956590;28;20188;-77
2022/11/21 02:31:39;;;;;;;15.53;11.33;;;4.40;99.90;;;;;;4955340;29;20197;-77
2022/11/21 02:34:06;;;;;;;14.30;11.17;;;4.40;99.90;;;;;;4954946;28;20226;-77
2022/11/21 02:36:42;;;;;;;15.47;11.40;;;4.40;99.90;;;;;;4970902;28;20210;-77
2022/11/21 02:39:15;;;;;;;14.37;10.93;;;4.40;99.90;;;;;;4970368;28;20209;-77
2022/11/21 02:41:54;;;;;;;14.83;10.60;;;4.40;99.90;;;;;;4967658;28;20221;-77
2022/11/21 02:44:27;;;;;;;14.90;11.33;;;4.40;99.90;;;;;;4973226;28;20222;-77
2022/11/21 02:46:54;;;;;;;14.67;11.30;;;4.50;99.90;;;;;;4954033;28;20208;-77
2022/11/21 02:49:31;;;;;;;14.60;11.70;;;4.50;99.90;;;;;;4965818;28;20195;-77
2022/11/21 02:51:59;;;;;;;15.47;11.33;;;4.40;99.90;;;;;;4969636;28;20699;-77
2022/11/21 02:54:26;;;;;;;16.23;11.40;;;4.40;99.90;;;;;;4953618;28;20231;-77
2022/11/21 02:56:56;;;;;;;14.27;11.47;;;4.30;99.90;;;;;;4948409;28;20222;-77
2022/11/21 02:59:23;;;;;;;14.70;11.33;;;4.30;99.90;;;;;;4971288;28;20210;-77
2022/11/21 03:01:51;;;;;;;16.90;11.70;;;4.30;99.90;;;;;;4955904;28;20213;-77
2022/11/21 03:04:18;;;;;;;14.13;11.63;;;4.20;99.90;;;;;;4955189;29;20215;-77
2022/11/21 03:06:45;;;;;;;15.13;11.27;;;4.20;99.90;;;;;;4954384;29;20602;-77
2022/11/21 03:09:13;;;;;;;16.80;12.43;;;4.20;99.90;;;;;;4955195;28;20199;-77
2022/11/21 03:11:40;;;;;;;15.30;12.10;;;4.30;99.90;;;;;;4970791;28;20209;-77
2022/11/21 03:14:09;;;;;;;17.20;12.10;;;4.20;99.90;;;;;;4967876;28;20223;-77
2022/11/21 03:16:36;;;;;;;14.93;11.13;;;4.20;99.90;;;;;;4967253;28;20213;-77
2022/11/21 03:19:04;;;;;;;16.60;11.80;;;4.20;99.90;;;;;;4969482;28;20214;-77
2022/11/21 03:21:31;;;;;;;15.27;11.67;;;4.20;99.90;;;;;;4953744;28;20552;-77
2022/11/21 03:23:59;;;;;;;14.77;11.57;;;4.20;99.90;;;;;;4988749;28;20232;-77
2022/11/21 03:26:26;;;;;;;16.47;12.40;;;4.10;99.90;;;;;;4965574;28;20200;-77
2022/11/21 03:28:56;;;;;;;16.90;11.67;;;3.90;99.90;;;;;;4954869;28;20557;-77
2022/11/21 03:31:25;;;;;;;17.20;12.80;;;4.00;99.90;;;;;;4986861;28;20204;-77
2022/11/21 03:33:52;;;;;;;16.40;11.43;;;4.20;99.90;;;;;;4954278;29;20223;-77
2022/11/21 03:36:20;;;;;;;16.97;12.50;;;4.30;99.90;;;;;;4954071;29;20211;-77
2022/11/21 03:38:47;;;;;;;18.30;13.23;;;4.40;99.90;;;;;;4954319;29;20220;-77
2022/11/21 03:41:29;;;;;;;16.70;12.27;;;4.40;99.90;;;;;;4987130;28;20218;-77
2022/11/21 03:43:57;;;;;;;17.30;12.33;;;4.50;99.90;;;;;;4965048;28;20231;-77
2022/11/21 03:46:26;;;;;;;17.70;13.07;;;4.40;99.90;;;;;;4954069;29;20258;-77
2022/11/21 03:48:53;;;;;;;17.00;12.10;;;4.40;99.90;;;;;;4964691;28;20192;-77
2022/11/21 03:51:21;;;;;;;18.37;14.10;;;4.30;99.90;;;;;;4968283;28;20206;-77
2022/11/21 03:53:49;;;;;;;19.23;14.43;;;4.30;99.90;;;;;;4957032;28;20229;-77
2022/11/21 03:56:17;;;;;;;18.87;12.97;;;4.20;99.90;;;;;;4954793;28;20200;-77
2022/11/21 03:58:45;;;;;;;19.73;13.50;;;4.10;99.90;;;;;;4970161;28;20219;-77
2022/11/21 04:01:13;;;;;;;18.07;12.50;;;3.90;99.90;;;;;;4968451;28;20207;-77
2022/11/21 04:03:43;;;;;;;19.07;12.93;;;3.90;99.90;;;;;;4969151;28;20227;-77
2022/11/21 04:06:12;;;;;;;19.63;12.90;;;4.00;99.90;;;;;;4968049;28;20222;-77
2022/11/21 04:08:39;;;;;;;20.37;14.37;;;3.90;99.90;;;;;;4968530;28;20203;-77
2022/11/21 04:11:07;;;;;;;19.17;12.73;;;4.00;99.90;;;;;;4969004;28;20578;-77
2022/11/21 04:13:35;;;;;;;17.97;12.73;;;3.90;99.90;;;;;;4951471;29;20218;-77
2022/11/21 04:16:02;;;;;;;18.30;12.67;;;3.90;99.90;;;;;;4957207;28;20197;-77
2022/11/21 04:18:30;;;;;;;21.53;13.57;;;4.10;99.90;;;;;;4962613;28;20220;-77
2022/11/21 04:20:59;;;;;;;19.17;13.50;;;4.10;99.90;;;;;;4954310;29;20206;-77
2022/11/21 04:23:27;;;;;;;21.37;13.60;;;4.20;99.90;;;;;;4953505;28;20223;-77
2022/11/21 04:25:55;;;;;;;19.13;13.07;;;4.10;99.90;;;;;;4967922;28;20208;-77
2022/11/21 04:28:37;;;;;;;19.17;14.07;;;4.10;99.90;;;;;;4969232;28;20198;-77
2022/11/21 04:31:05;;;;;;;18.63;13.03;;;3.90;99.90;;;;;;4968737;28;20194;-77
2022/11/21 04:33:32;;;;;;;19.73;13.47;;;4.00;99.90;;;;;;4952786;29;20222;-77
2022/11/21 04:36:01;;;;;;;17.93;12.80;;;3.90;99.90;;;;;;4952688;29;20221;-77
2022/11/21 04:38:29;;;;;;;18.40;13.93;;;3.90;99.90;;;;;;4963106;28;20215;-77
2022/11/21 04:40:57;;;;;;;19.63;12.50;;;3.90;99.90;;;;;;4965933;28;20206;-77
2022/11/21 04:43:25;;;;;;;19.03;13.80;;;3.80;99.90;;;;;;4953420;29;20238;-77
2022/11/21 04:45:52;;;;;;;22.93;13.20;;;3.70;99.90;;;;;;4993314;23;20631;-78
2022/11/21 04:48:20;;;;;;;19.67;13.43;;;3.60;99.90;;;;;;4988731;28;20196;-78
2022/11/21 04:50:47;;;;;;;17.13;12.67;;;3.50;99.90;;;;;;4992839;28;20203;-78
2022/11/21 04:53:16;;;;;;;21.03;13.63;;;3.60;99.90;;;;;;4992494;28;20572;-78
2022/11/21 04:55:43;;;;;;;21.17;14.77;;;3.50;99.90;;;;;;4991913;28;20239;-78
2022/11/21 04:58:11;;;;;;;25.33;14.83;;;3.60;99.90;;;;;;4988770;28;20231;-78
2022/11/21 05:00:55;;;;;;;21.73;14.43;;;3.70;99.90;;;;;;4978804;28;20204;-78
2022/11/21 05:03:22;;;;;;;20.33;14.37;;;3.80;99.90;;;;;;4986715;28;20203;-78
2022/11/21 05:05:50;;;;;;;22.67;13.70;;;3.80;99.90;;;;;;4988310;28;20722;-78
2022/11/21 05:08:19;;;;;;;21.70;14.30;;;3.80;99.90;;;;;;4989851;28;20203;-78
2022/11/21 05:13:31;;;;;;;25.13;15.13;;;3.90;99.90;;;;;;5007656;28;20691;-78
2022/11/21 05:15:58;;;;;;;24.53;14.90;;;3.80;99.90;;;;;;4992917;28;20220;-78
2022/11/21 05:18:26;;;;;;;24.20;15.90;;;3.90;99.90;;;;;;5007723;28;20287;-78
2022/11/21 05:20:53;;;;;;;26.80;16.80;;;3.90;99.90;;;;;;5007683;28;20208;-78
2022/11/21 05:23:22;;;;;;;27.37;17.03;;;3.90;99.90;;;;;;4992099;28;20204;-78
2022/11/21 05:25:49;;;;;;;28.80;17.10;;;4.00;99.90;;;;;;4992155;28;20232;-78
2022/11/21 05:28:17;;;;;;;27.50;17.20;;;4.00;99.90;;;;;;5007557;28;20204;-78
2022/11/21 05:30:44;;;;;;;24.53;16.43;;;4.10;99.90;;;;;;5007465;28;20212;-78
2022/11/21 05:33:11;;;;;;;27.67;17.67;;;4.00;99.90;;;;;;5007900;28;20209;-78
2022/11/21 05:35:39;;;;;;;25.83;16.60;;;4.10;99.90;;;;;;4991543;28;20228;-78
2022/11/21 05:38:07;;;;;;;27.30;16.70;;;4.10;99.90;;;;;;5010290;28;20681;-78
2022/11/21 05:40:35;;;;;;;28.00;17.20;;;4.10;99.90;;;;;;4994483;28;20193;-78
2022/11/21 05:45:49;;;;;;;27.20;16.37;;;3.90;99.90;;;;;;4993627;28;20217;-78
2022/11/21 05:48:16;;;;;;;30.50;17.13;;;3.90;99.90;;;;;;4989444;28;20654;-77
2022/11/21 05:50:48;;;;;;;29.10;17.17;;;3.90;99.90;;;;;;5007636;28;20210;-77
2022/11/21 05:53:18;;;;;;;27.47;16.30;;;3.90;99.90;;;;;;4994958;28;20705;-77
2022/11/21 05:55:47;;;;;;;28.20;17.00;;;3.90;99.90;;;;;;4992453;28;20228;-78
2022/11/21 05:58:14;;;;;;;28.10;16.37;;;3.90;99.90;;;;;;5003579;28;20212;-78
2022/11/21 06:00:42;;;;;;;27.53;16.97;;;3.90;99.90;;;;;;4992625;28;20210;-78
2022/11/21 06:03:29;;;;;;;28.27;15.70;;;3.90;99.90;;;;;;5009084;28;20210;-78
2022/11/21 06:06:02;;;;;;;30.07;17.37;;;4.10;99.90;;;;;;4992663;28;20215;-78
2022/11/21 06:08:31;;;;;;;31.33;16.90;;;4.10;99.90;;;;;;4984530;28;20532;-78
2022/11/21 06:11:00;;;;;;;28.47;17.87;;;4.20;99.90;;;;;;4991465;28;20694;-78
2022/11/21 06:13:27;;;;;;;29.97;17.17;;;4.00;99.90;;;;;;5007013;28;20196;-78
2022/11/21 06:15:59;;;;;;;31.37;18.00;;;4.10;99.90;;;;;;4990126;28;20230;-78
2022/11/21 06:18:27;;;;;;;31.87;16.70;;;3.90;99.90;;;;;;4991640;28;20577;-78
2022/11/21 06:21:00;;;;;;;29.10;17.60;;;3.90;99.90;;;;;;4992530;28;20204;-78
2022/11/21 06:23:27;;;;;;;30.60;17.47;;;3.90;99.90;;;;;;4949265;28;20233;-77
2022/11/21 06:25:57;;;;;;;32.63;18.37;;;3.80;99.90;;;;;;4988899;28;20602;-77
2022/11/21 06:28:26;;;;;;;31.93;17.83;;;3.90;99.90;;;;;;4973103;28;20567;-78
2022/11/21 06:30:54;;;;;;;33.93;18.17;;;3.90;99.90;;;;;;4988049;28;20198;-80
2022/11/21 06:33:21;;;;;;;32.50;17.20;;;3.90;99.90;;;;;;4993484;28;20205;-81
2022/11/21 06:35:49;;;;;;;31.03;17.60;;;3.80;99.90;;;;;;4991011;28;20234;-81
2022/11/21 06:38:18;;;;;;;30.23;17.33;;;3.90;99.90;;;;;;4979859;28;20201;-82
2022/11/21 06:40:46;;;;;;;32.33;17.07;;;4.00;99.90;;;;;;4977781;28;20209;-81
2022/11/21 06:43:13;;;;;;;29.40;16.83;;;4.00;99.90;;;;;;4994266;28;20562;-81
2022/11/21 06:45:43;;;;;;;34.83;19.13;;;4.10;99.90;;;;;;4992773;28;20240;-81
2022/11/21 06:48:11;;;;;;;32.60;17.20;;;4.20;99.90;;;;;;4993264;28;20194;-81
2022/11/21 06:50:38;;;;;;;28.23;17.03;;;4.10;99.90;;;;;;4988577;28;20665;-82
2022/11/21 06:53:06;;;;;;;32.23;17.83;;;4.10;99.90;;;;;;4977002;28;20199;-81
2022/11/21 06:55:36;;;;;;;31.93;18.77;;;4.20;99.90;;;;;;4988048;28;20698;-83
2022/11/21 06:58:04;;;;;;;31.40;16.90;;;4.30;99.90;;;;;;4989470;28;20209;-81
2022/11/21 07:00:32;;;;;;;31.83;18.47;;;4.20;99.90;;;;;;4987998;28;20218;-82
2022/11/21 07:03:02;;;;;;;35.20;18.27;;;4.20;99.90;;;;;;4988287;28;20205;-81
2022/11/21 07:05:30;;;;;;;32.53;17.27;;;4.30;99.90;;;;;;4985828;28;20322;-80
2022/11/21 07:07:59;;;;;;;29.83;17.33;;;4.30;99.90;;;;;;4989175;28;20216;-81
2022/11/21 07:10:34;;;;;;;30.60;17.70;;;4.30;99.90;;;;;;4988451;28;20487;-80
2022/11/21 07:15:48;;;;;;;30.40;16.83;;;4.40;99.90;;;;;;4974869;28;20554;-81
2022/11/21 07:18:18;;;;;;;31.93;18.83;;;4.50;99.90;;;;;;4989379;28;20203;-81
2022/11/21 07:20:46;;;;;;;28.53;16.60;;;4.40;99.90;;;;;;4968025;28;20227;-81
2022/11/21 07:23:14;;;;;;;33.70;18.53;;;4.40;99.90;;;;;;4989118;28;20202;-82
2022/11/21 07:25:44;;;;;;;36.27;18.47;;;4.40;99.90;;;;;;4985611;28;20233;-83
2022/11/21 07:28:13;;;;;;;31.80;17.33;;;4.40;99.90;;;;;;4970220;28;20194;-83
2022/11/21 07:30:41;;;;;;;34.23;18.20;;;4.40;99.90;;;;;;4986666;28;20587;-81
2022/11/21 07:33:08;;;;;;;26.03;16.97;;;4.40;99.90;;;;;;4989124;28;20211;-81
2022/11/21 07:35:37;;;;;;;32.93;17.50;;;4.40;99.90;;;;;;4989437;28;20226;-81
2022/11/21 07:38:05;;;;;;;28.53;18.00;;;4.40;99.90;;;;;;4974926;28;20200;-81
2022/11/21 07:40:33;;;;;;;33.87;17.73;;;4.50;99.90;;;;;;4988303;28;20225;-81
2022/11/21 07:43:02;;;;;;;31.50;16.27;;;4.40;99.90;;;;;;4987949;28;20200;-82
2022/11/21 07:45:29;;;;;;;35.60;18.83;;;4.80;99.90;;;;;;4988388;28;20237;-82
2022/11/21 07:47:58;;;;;;;31.47;17.63;;;4.60;99.90;;;;;;4974375;28;20221;-82
2022/11/21 07:50:26;;;;;;;32.37;18.13;;;4.60;99.90;;;;;;4987716;28;20562;-82
2022/11/21 07:52:58;;;;;;;31.20;17.43;;;4.70;99.90;;;;;;4984184;28;20209;-82
2022/11/21 07:55:28;;;;;;;33.83;18.23;;;4.70;99.90;;;;;;4972687;28;20219;-82
2022/11/21 07:57:59;;;;;;;36.97;19.43;;;4.70;99.90;;;;;;4989394;28;20198;-82
2022/11/21 08:00:30;;;;;;;36.03;18.90;;;4.70;99.90;;;;;;4967655;28;20579;-82
2022/11/21 08:02:57;;;;;;;37.73;18.23;;;4.80;99.90;;;;;;4975192;28;20272;-82
2022/11/21 08:05:25;;;;;;;35.73;19.80;;;4.80;99.90;;;;;;4985067;28;20239;-81
2022/11/21 08:07:54;;;;;;;38.73;19.37;;;4.80;99.90;;;;;;4990345;28;20261;-82
2022/11/21 08:10:23;;;;;;;34.63;18.73;;;4.90;99.90;;;;;;4986182;28;20199;-83
2022/11/21 08:12:50;;;;;;;34.97;18.67;;;5.00;99.90;;;;;;4990606;28;20200;-82
2022/11/21 08:15:18;;;;;;;41.80;20.37;;;4.90;99.90;;;;;;4976506;28;20231;-83
2022/11/21 08:17:46;;;;;;;36.23;19.90;;;4.80;99.90;;;;;;4989821;28;20206;-83
2022/11/21 08:20:14;;;;;;;34.73;18.77;;;4.80;99.90;;;;;;4986452;28;20228;-84
2022/11/21 08:22:42;;;;;;;35.80;19.63;;;4.90;99.90;;;;;;4988522;28;20203;-82
2022/11/21 08:25:10;;;;;;;41.67;19.87;;;4.90;99.90;;;;;;4970614;28;20235;-83
2022/11/21 08:27:41;;;;;;;37.87;19.83;;;4.90;99.90;;;;;;4988841;28;20199;-82
2022/11/21 08:30:12;;;;;;;39.17;19.20;;;4.70;99.90;;;;;;4975519;28;20205;-81
2022/11/21 08:32:40;;;;;;;38.53;19.77;;;4.70;99.90;;;;;;4970748;28;20213;-83
2022/11/21 08:35:08;;;;;;;39.37;20.27;;;4.70;99.90;;;;;;4983908;28;20743;-82
2022/11/21 08:37:35;;;;;;;38.63;19.50;;;4.90;99.90;;;;;;4971509;28;20207;-82
2022/11/21 08:40:03;;;;;;;37.40;19.93;;;4.90;99.90;;;;;;4969196;28;20222;-81
2022/11/21 08:42:30;;;;;;;35.73;19.07;;;5.00;99.90;;;;;;4986116;28;20664;-81
2022/11/21 08:44:59;;;;;;;40.37;19.83;;;4.90;99.90;;;;;;4987411;28;20241;-81
2022/11/21 08:47:27;;;;;;;35.67;18.37;;;4.90;99.90;;;;;;4982901;28;20214;-82
2022/11/21 08:49:54;;;;;;;34.63;17.70;;;4.90;99.90;;;;;;4987800;28;20590;-81
2022/11/21 08:52:22;;;;;;;33.23;18.50;;;5.00;99.90;;;;;;4970391;28;20671;-81
2022/11/21 08:54:49;;;;;;;36.70;19.20;;;5.10;99.90;;;;;;4971072;28;20447;-81
2022/11/21 08:57:17;;;;;;;32.73;18.57;;;5.10;99.90;;;;;;4984986;28;20205;-81
2022/11/21 08:59:44;;;;;;;34.97;18.20;;;5.10;99.90;;;;;;4985171;28;20220;-80
2022/11/21 09:02:13;;;;;;;31.77;18.67;;;5.10;99.90;;;;;;4966559;28;20201;-81
2022/11/21 09:04:40;;;;;;;32.13;19.43;;;5.10;99.90;;;;;;4973392;28;20237;-80
2022/11/21 09:07:08;;;;;;;36.23;19.30;;;5.20;99.90;;;;;;4986296;28;20199;-81
2022/11/21 09:09:36;;;;;;;35.73;18.47;;;5.10;99.90;;;;;;4987989;28;20696;-80
2022/11/21 09:12:03;;;;;;;36.17;18.80;;;5.20;99.90;;;;;;4970396;28;20684;-80
2022/11/21 09:20:02;;;;;;;36.53;19.70;;;5.30;99.90;;;;;;4988630;28;20612;-80
2022/11/21 09:22:29;;;;;;;37.73;19.67;;;5.40;99.90;;;;;;4986629;28;20216;-80
2022/11/21 09:24:56;;;;;;;36.60;18.87;;;5.40;99.90;;;;;;4975588;28;20234;-80
2022/11/21 09:27:24;;;;;;;38.33;19.43;;;5.50;99.90;;;;;;4988157;28;20208;-79
2022/11/21 09:29:51;;;;;;;36.83;20.23;;;5.60;99.90;;;;;;4974177;28;20202;-79
2022/11/21 09:32:20;;;;;;;41.47;20.57;;;5.50;99.90;;;;;;4971531;28;20218;-79
2022/11/21 09:34:47;;;;;;;46.20;21.77;;;5.50;99.90;;;;;;4986265;28;20233;-80
2022/11/21 09:37:15;;;;;;;44.00;20.70;;;5.50;99.90;;;;;;4989355;28;20211;-79
2022/11/21 09:39:48;;;;;;;42.80;21.90;;;5.50;99.90;;;;;;4974535;28;20211;-79
2022/11/21 09:42:44;;;;;;;51.00;22.90;;;5.50;99.90;;;;;;4986201;28;20195;-81
2022/11/21 09:45:16;;;;;;;49.63;21.57;;;5.60;99.90;;;;;;4989409;28;20246;-81
2022/11/21 09:47:48;;;;;;;47.90;21.73;;;5.60;99.90;;;;;;4989836;28;20212;-81
2022/11/21 09:50:26;;;;;;;50.23;23.97;;;5.70;99.90;;;;;;4968524;28;20203;-81
2022/11/21 09:52:58;;;;;;;48.33;22.03;;;5.60;99.90;;;;;;4968157;28;20202;-82
2022/11/21 09:55:41;;;;;;;46.90;22.73;;;5.70;99.90;;;;;;4985513;28;20221;-81
2022/11/21 09:58:18;;;;;;;44.87;21.03;;;5.70;99.90;;;;;;4989098;28;20214;-82
2022/11/21 10:00:46;;;;;;;43.70;21.17;;;5.80;99.90;;;;;;4986883;28;20234;-82
2022/11/21 10:03:15;;;;;;;43.50;21.50;;;5.60;99.90;;;;;;4970640;28;20207;-82
2022/11/21 10:05:48;;;;;;;42.53;21.07;;;5.70;99.90;;;;;;4973067;28;20228;-82
2022/11/21 10:08:20;;;;;;;44.23;21.33;;;5.60;99.90;;;;;;4990500;28;20201;-82
2022/11/21 10:10:54;;;;;;;40.53;22.27;;;5.60;99.90;;;;;;4991352;28;20206;-82
2022/11/21 10:13:42;;;;;;;44.50;21.80;;;5.70;99.90;;;;;;4976961;28;20202;-82
2022/11/21 10:16:18;;;;;;;40.33;19.90;;;5.70;99.90;;;;;;4970805;28;20313;-82
2022/11/21 10:19:08;;;;;;;43.23;20.67;;;5.70;99.90;;;;;;4989305;28;20213;-82
2022/11/21 10:21:58;;;;;;;55.30;22.43;;;5.60;99.90;;;;;;4975185;28;20217;-82
2022/11/21 10:24:39;;;;;;;46.53;22.23;;;5.70;99.90;;;;;;4995961;28;20220;-81
2022/11/21 10:27:13;;;;;;;47.07;22.77;;;5.80;99.90;;;;;;4978335;28;20209;-81
2022/11/21 10:29:47;;;;;;;46.63;22.20;;;5.80;99.90;;;;;;4994135;28;20219;-81
2022/11/21 10:32:23;;;;;;;45.87;22.60;;;5.80;99.90;;;;;;4985800;28;20196;-81
2022/11/21 10:34:55;;;;;;;43.23;23.40;;;5.90;99.90;;;;;;4989745;28;20251;-80
2022/11/21 10:37:36;;;;;;;47.20;23.30;;;5.90;99.90;;;;;;4972896;28;20204;-80
2022/11/21 10:40:18;;;;;;;53.03;23.27;;;5.90;99.90;;;;;;4975693;28;20673;-81
2022/11/21 10:42:53;;;;;;;50.00;22.27;;;5.90;99.90;;;;;;4990951;28;20214;-81
2022/11/21 10:45:20;;;;;;;47.80;23.30;;;6.00;99.90;;;;;;4985437;28;20227;-80
2022/11/21 10:47:49;;;;;;;47.53;23.00;;;6.00;99.90;;;;;;4975880;28;20221;-81
2022/11/21 10:50:41;;;;;;;44.47;22.20;;;6.10;99.90;;;;;;4982003;28;20219;-81
2022/11/21 10:56:04;;;;;;;46.27;23.37;;;6.30;99.90;;;;;;4976101;28;20227;-81
2022/11/21 10:58:41;;;;;;;46.00;23.00;;;6.30;99.90;;;;;;4974809;28;20207;-80
2022/11/21 11:01:23;;;;;;;45.43;23.07;;;6.40;99.90;;;;;;4972880;28;20220;-79
2022/11/21 11:04:16;;;;;;;45.00;23.43;;;6.50;99.90;;;;;;4990648;28;20745;-81
2022/11/21 11:06:46;;;;;;;43.27;20.63;;;6.50;99.90;;;;;;4983341;28;20208;-80
2022/11/21 11:09:23;;;;;;;43.60;22.10;;;6.60;99.90;;;;;;4986234;28;20207;-80
2022/11/21 11:11:51;;;;;;;43.70;21.97;;;6.60;99.90;;;;;;4987477;28;20555;-81
2022/11/21 11:14:30;;;;;;;45.27;22.50;;;6.60;99.90;;;;;;4990400;28;20233;-81
2022/11/21 11:16:57;;;;;;;45.93;21.73;;;6.70;99.90;;;;;;4987629;28;20547;-80
2022/11/21 11:19:28;;;;;;;39.97;21.17;;;6.80;99.90;;;;;;4985966;28;20207;-81
2022/11/21 11:21:57;;;;;;;40.83;21.13;;;7.10;99.90;;;;;;4968373;28;20238;-81
2022/11/21 11:24:26;;;;;;;41.07;21.93;;;7.40;99.90;;;;;;4976212;28;20227;-81
2022/11/21 11:29:33;;;;;;;36.37;19.00;;;7.50;99.90;;;;;;5001900;28;20672;-77
2022/11/21 11:32:03;;;;;;;37.73;20.50;;;7.30;99.90;;;;;;4994228;28;20206;-78
2022/11/21 11:34:41;;;;;;;39.40;20.47;;;7.20;99.90;;;;;;5007649;28;20207;-78
2022/11/21 11:37:18;;;;;;;35.20;18.43;;;7.40;99.90;;;;;;5007942;28;20226;-78
2022/11/21 11:40:01;;;;;;;36.27;20.37;;;7.30;99.90;;;;;;5008016;28;20199;-78
2022/11/21 11:48:45;;;;;;;36.50;20.00;;;7.40;99.90;;;;;;4993311;28;20218;-78
2022/11/21 11:51:21;;;;;;;33.00;19.13;;;7.30;99.90;;;;;;5008143;28;20201;-77
2022/11/21 11:53:53;;;;;;;35.37;20.83;;;7.10;99.90;;;;;;4988490;28;20203;-79
2022/11/21 11:56:26;;;;;;;33.50;20.27;;;7.10;99.90;;;;;;4989154;28;20204;-79
2022/11/21 11:58:58;;;;;;;28.67;18.60;;;7.10;99.90;;;;;;5000713;28;20223;-79
2022/11/21 12:01:33;;;;;;;31.97;19.30;;;7.10;99.90;;;;;;5007636;28;20231;-78
2022/11/21 12:04:05;;;;;;;33.43;18.77;;;7.20;99.90;;;;;;5016734;28;20187;-78
2022/11/21 12:06:37;;;;;;;32.73;17.93;;;7.10;99.90;;;;;;4998494;28;20196;-78
2022/11/21 12:09:17;;;;;;;29.13;16.53;;;7.10;99.90;;;;;;4997832;28;20203;-80
2022/11/21 12:12:08;;;;;;;31.63;16.80;;;7.20;99.90;;;;;;4998230;28;20217;-80
2022/11/21 12:17:43;;;;;;;25.00;15.17;;;7.70;99.90;;;;;;5009003;28;20212;-79
2022/11/21 12:20:19;;;;;;;23.07;14.50;;;8.00;99.90;;;;;;4990040;28;20200;-78
2022/11/21 12:22:50;;;;;;;22.93;14.47;;;7.70;99.90;;;;;;5009553;28;20214;-77
2022/11/21 12:25:23;;;;;;;18.50;12.77;;;7.90;99.90;;;;;;5013547;28;20190;-77
2022/11/21 12:27:54;;;;;;;19.70;12.60;;;7.90;99.90;;;;;;4978850;28;20228;-78
2022/11/21 12:30:50;;;;;;;18.83;13.43;;;8.30;99.90;;;;;;4990253;28;20557;-79
2022/11/21 12:33:23;;;;;;;19.47;13.60;;;8.20;99.90;;;;;;4983650;28;20207;-80
2022/11/21 12:36:14;;;;;;;16.80;11.23;;;7.80;99.90;;;;;;5011980;28;20199;-78
2022/11/21 12:39:09;;;;;;;14.60;11.50;;;7.60;99.90;;;;;;4991359;28;20199;-77
2022/11/21 12:44:45;;;;;;;13.70;11.50;;;7.40;99.90;;;;;;5002861;28;20205;-79
2022/11/21 12:47:28;;;;;;;15.03;11.47;;;7.50;99.90;;;;;;4991770;28;20226;-78
2022/11/21 12:55:55;;;;;;;17.23;12.17;;;7.40;99.90;;;;;;4989484;28;20678;-78
2022/11/21 12:58:36;;;;;;;16.80;11.77;;;7.40;99.90;;;;;;4990962;28;20231;-78
2022/11/21 13:01:18;;;;;;;16.50;11.20;;;7.40;99.90;;;;;;4990172;28;20198;-79
2022/11/21 13:03:51;;;;;;;16.70;10.73;;;7.50;99.90;;;;;;4990461;28;20298;-77
2022/11/21 13:06:57;;;;;;;16.60;11.30;;;7.40;99.90;;;;;;4990536;28;20211;-77
2022/11/21 13:09:26;;;;;;;14.33;10.40;;;7.50;99.90;;;;;;5001611;28;20676;-78
2022/11/21 13:12:00;;;;;;;18.97;10.60;;;7.50;99.90;;;;;;4994213;28;20199;-77
2022/11/21 13:14:38;;;;;;;14.30;11.40;;;7.50;99.90;;;;;;4995209;28;20201;-78
2022/11/21 13:17:26;;;;;;;19.80;12.10;;;7.60;99.90;;;;;;4990784;28;20225;-78
2022/11/21 13:23:38;;;;;;;16.97;11.57;;;7.80;99.90;;;;;;4987869;28;20218;-78
2022/11/21 13:26:56;;;;;;;16.23;10.70;;;8.00;99.90;;;;;;4992043;28;20598;-79
2022/11/21 13:29:23;;;;;;;13.03;10.60;;;7.90;99.90;;;;;;4921031;29;20217;-79
2022/11/21 13:31:59;;;;;;;14.80;10.80;;;7.80;99.90;;;;;;4916713;29;20201;-79
2022/11/21 13:34:39;;;;;;;16.50;10.70;;;7.80;99.90;;;;;;4950321;28;20201;-79
2022/11/21 13:37:07;;;;;;;14.07;10.00;;;7.80;99.90;;;;;;4989609;28;20223;-79
2022/11/21 13:39:36;;;;;;;15.43;11.37;;;7.90;99.90;;;;;;4986986;28;20214;-79